Time;durP1;ratioP1;P1;durP2;ratioP2;P2;SDS_P1;SDS_P2;PMS_P1;PMS_P2;Temp;Humidity;BMP_temperature;BMP_pressure;BME280_temperature;BME280_humidity;BME280_pressure;Samples;Min_cycle;Max_cycle;Signal;HPM_P1;HPM_P2
2022/07/29 00:02:23;;;;;;;2.00;1.47;;;19.70;95.60;;;;;;5032638;28;20645;-34
2022/07/29 00:04:49;;;;;;;5.70;1.90;;;19.60;95.80;;;;;;5032658;28;20440;-34
2022/07/29 00:07:15;;;;;;;6.07;1.80;;;19.60;96.00;;;;;;5031998;28;20678;-34
2022/07/29 00:09:41;;;;;;;3.90;1.80;;;19.50;96.10;;;;;;5032654;28;20218;-34
2022/07/29 00:12:06;;;;;;;2.83;1.80;;;19.60;96.10;;;;;;5049932;28;20218;-34
2022/07/29 00:14:32;;;;;;;3.83;1.90;;;19.50;95.80;;;;;;5052618;28;20661;-34
2022/07/29 00:16:58;;;;;;;4.70;2.30;;;19.50;96.00;;;;;;5050468;28;20810;-34
2022/07/29 00:19:23;;;;;;;4.30;1.47;;;19.50;96.00;;;;;;5050757;28;20265;-34
2022/07/29 00:21:49;;;;;;;5.00;1.73;;;19.50;96.10;;;;;;5058380;28;20351;-34
2022/07/29 00:24:15;;;;;;;3.10;1.67;;;19.50;96.10;;;;;;5032388;28;20224;-34
2022/07/29 00:26:41;;;;;;;4.07;1.63;;;19.50;96.00;;;;;;5031849;28;20204;-34
2022/07/29 00:29:06;;;;;;;2.20;1.73;;;19.50;95.90;;;;;;5032215;28;20185;-34
2022/07/29 00:31:32;;;;;;;4.47;1.90;;;19.50;96.10;;;;;;5032160;28;20271;-34
2022/07/29 00:33:58;;;;;;;3.60;1.80;;;19.50;96.30;;;;;;5031980;28;20243;-34
2022/07/29 00:36:23;;;;;;;3.77;2.10;;;19.40;96.10;;;;;;5032314;28;20313;-34
2022/07/29 00:38:50;;;;;;;2.23;1.90;;;19.40;96.40;;;;;;5031670;28;20226;-34
2022/07/29 00:41:17;;;;;;;4.07;1.87;;;19.50;96.20;;;;;;5032239;28;20198;-34
2022/07/29 00:43:43;;;;;;;3.30;1.70;;;19.40;96.20;;;;;;5031952;28;20436;-34
2022/07/29 00:46:09;;;;;;;2.50;1.73;;;19.40;96.60;;;;;;5031985;28;20436;-35
2022/07/29 00:48:35;;;;;;;4.23;1.80;;;19.40;96.50;;;;;;5031237;28;20417;-35
2022/07/29 00:51:03;;;;;;;1.93;1.40;;;19.30;96.60;;;;;;5031991;28;20511;-34
2022/07/29 00:53:31;;;;;;;6.43;1.80;;;19.30;96.70;;;;;;5032077;28;20194;-34
2022/07/29 00:55:57;;;;;;;3.23;1.60;;;19.30;96.80;;;;;;5031633;28;20422;-34
2022/07/29 00:58:24;;;;;;;3.57;1.80;;;19.30;96.70;;;;;;5031332;28;20424;-34
2022/07/29 01:00:49;;;;;;;2.83;1.60;;;19.30;96.80;;;;;;5032940;28;20787;-34
2022/07/29 01:03:15;;;;;;;5.30;2.30;;;19.30;96.80;;;;;;5031815;28;20429;-34
2022/07/29 01:05:44;;;;;;;2.90;1.80;;;19.30;96.90;;;;;;5031376;28;20740;-35
2022/07/29 01:08:11;;;;;;;3.37;1.90;;;19.30;96.70;;;;;;5031123;28;20174;-34
2022/07/29 01:10:39;;;;;;;2.20;1.80;;;19.20;96.80;;;;;;5036499;28;20563;-35
2022/07/29 01:13:05;;;;;;;2.53;2.00;;;19.20;96.70;;;;;;5051588;28;20456;-34
2022/07/29 01:15:39;;;;;;;5.33;2.10;;;19.20;96.70;;;;;;5051056;28;20416;-34
2022/07/29 01:18:15;;;;;;;4.20;1.87;;;19.10;96.90;;;;;;5050776;28;20479;-34
2022/07/29 01:21:15;;;;;;;7.60;2.40;;;19.20;96.80;;;;;;5054165;28;20438;-34
2022/07/29 01:23:48;;;;;;;4.87;1.87;;;19.20;96.70;;;;;;5032953;28;20425;-34
2022/07/29 01:26:42;;;;;;;5.00;1.97;;;19.20;97.10;;;;;;5031273;28;20431;-34
2022/07/29 01:29:10;;;;;;;6.27;1.93;;;19.10;97.00;;;;;;5041442;28;20412;-34
2022/07/29 01:31:49;;;;;;;2.13;1.70;;;19.10;97.20;;;;;;5050811;28;20456;-34
2022/07/29 01:34:23;;;;;;;5.60;1.60;;;19.10;97.20;;;;;;5050141;28;20990;-34
2022/07/29 01:36:56;;;;;;;2.73;1.70;;;19.00;97.10;;;;;;5050406;28;20423;-34
2022/07/29 01:39:29;;;;;;;2.20;1.30;;;19.00;97.40;;;;;;5050982;28;20420;-34
2022/07/29 01:42:09;;;;;;;3.73;1.97;;;19.00;97.40;;;;;;5050785;28;20475;-34
2022/07/29 01:44:57;;;;;;;2.67;1.97;;;19.00;97.50;;;;;;5050604;28;20420;-34
2022/07/29 01:47:31;;;;;;;9.10;2.30;;;19.10;97.40;;;;;;5050200;28;20570;-34
2022/07/29 01:49:59;;;;;;;3.07;1.90;;;19.00;97.30;;;;;;5050883;28;20411;-34
2022/07/29 01:52:36;;;;;;;2.70;1.50;;;19.00;97.70;;;;;;5050524;28;20858;-34
2022/07/29 01:55:09;;;;;;;4.83;2.07;;;18.90;97.80;;;;;;5050378;28;20499;-34
2022/07/29 01:57:37;;;;;;;6.90;2.20;;;18.80;98.10;;;;;;5049974;28;20489;-34
2022/07/29 02:00:05;;;;;;;5.77;1.70;;;18.80;98.00;;;;;;5050589;28;20424;-34
2022/07/29 02:02:32;;;;;;;5.90;2.00;;;18.80;97.90;;;;;;5032874;28;20417;-34
2022/07/29 02:05:02;;;;;;;1.87;1.67;;;18.80;98.10;;;;;;5030403;28;20492;-34
2022/07/29 02:07:30;;;;;;;2.30;1.67;;;18.80;98.10;;;;;;5029801;28;20425;-34
2022/07/29 02:09:58;;;;;;;2.57;1.97;;;18.70;98.70;;;;;;5030381;28;20417;-35
2022/07/29 02:12:27;;;;;;;2.40;2.20;;;18.70;98.60;;;;;;5012542;28;20987;-34
2022/07/29 02:14:55;;;;;;;3.43;1.97;;;18.70;98.50;;;;;;5030269;28;20417;-34
2022/07/29 02:17:25;;;;;;;3.20;1.97;;;18.70;98.60;;;;;;5029750;28;20417;-34
2022/07/29 02:19:57;;;;;;;3.90;2.20;;;18.60;98.90;;;;;;5028633;28;20413;-34
2022/07/29 02:22:25;;;;;;;2.43;2.23;;;18.60;99.00;;;;;;5049845;28;20429;-34
2022/07/29 02:24:52;;;;;;;5.07;1.90;;;18.60;99.20;;;;;;5030068;28;20429;-34
2022/07/29 02:27:19;;;;;;;2.37;1.80;;;18.50;99.40;;;;;;5029636;28;20421;-34
2022/07/29 02:29:47;;;;;;;8.50;2.40;;;18.60;99.30;;;;;;5028690;28;20429;-34
2022/07/29 02:32:15;;;;;;;3.60;2.00;;;18.60;99.30;;;;;;5030129;28;20461;-34
2022/07/29 02:34:43;;;;;;;9.40;1.60;;;18.60;99.10;;;;;;5029871;28;20973;-34
2022/07/29 02:37:12;;;;;;;2.90;1.90;;;18.60;99.30;;;;;;5029534;28;20487;-34
2022/07/29 02:39:42;;;;;;;12.13;2.37;;;18.50;99.40;;;;;;5030037;28;20494;-34
2022/07/29 02:42:12;;;;;;;5.23;2.27;;;18.40;99.40;;;;;;5030078;28;20841;-34
2022/07/29 02:44:38;;;;;;;3.10;1.93;;;18.40;99.70;;;;;;5029960;28;20516;-34
2022/07/29 02:47:16;;;;;;;3.30;2.30;;;18.40;99.90;;;;;;5029137;28;20567;-34
2022/07/29 02:49:59;;;;;;;3.73;2.27;;;18.30;99.80;;;;;;5028578;28;20541;-34
2022/07/29 02:52:42;;;;;;;2.83;1.77;;;18.30;99.90;;;;;;5029780;28;21136;-34
2022/07/29 02:55:19;;;;;;;3.80;2.07;;;18.30;99.90;;;;;;5029925;28;20421;-34
2022/07/29 02:57:54;;;;;;;3.70;1.97;;;18.30;99.90;;;;;;5029251;28;20815;-35
2022/07/29 03:00:23;;;;;;;3.33;1.70;;;18.20;99.90;;;;;;5030955;28;20789;-34
2022/07/29 03:02:53;;;;;;;3.90;2.00;;;18.30;99.90;;;;;;5029874;28;20456;-34
2022/07/29 03:05:22;;;;;;;5.13;2.20;;;18.30;99.90;;;;;;5029644;28;20433;-34
2022/07/29 03:07:54;;;;;;;2.67;1.90;;;18.40;99.90;;;;;;5029014;28;20449;-34
2022/07/29 03:10:21;;;;;;;3.23;1.90;;;18.30;99.90;;;;;;5032517;28;20424;-34
2022/07/29 03:12:48;;;;;;;5.47;2.10;;;18.30;99.90;;;;;;5049557;28;20416;-34
2022/07/29 03:15:14;;;;;;;5.67;2.20;;;18.40;99.90;;;;;;5049684;28;20415;-34
2022/07/29 03:17:41;;;;;;;3.00;1.83;;;18.40;99.90;;;;;;5048939;28;20807;-34
2022/07/29 03:20:08;;;;;;;2.27;1.97;;;18.40;99.90;;;;;;5047905;28;20481;-35
2022/07/29 03:22:43;;;;;;;2.40;2.00;;;18.30;99.90;;;;;;5049298;28;20461;-34
2022/07/29 03:25:10;;;;;;;6.17;2.00;;;18.30;99.90;;;;;;5029608;28;20413;-34
2022/07/29 03:27:36;;;;;;;5.13;2.27;;;18.20;99.90;;;;;;5029032;28;20412;-34
2022/07/29 03:30:03;;;;;;;4.40;2.13;;;18.20;99.90;;;;;;5029445;28;21005;-34
2022/07/29 03:32:28;;;;;;;10.03;2.90;;;18.10;99.90;;;;;;5029539;28;20199;-34
2022/07/29 03:34:54;;;;;;;3.90;2.93;;;18.10;99.90;;;;;;5029256;28;20504;-34
2022/07/29 03:37:20;;;;;;;2.70;1.90;;;18.20;99.90;;;;;;5028771;28;20190;-34
2022/07/29 03:39:47;;;;;;;2.70;1.97;;;18.20;99.90;;;;;;5029250;28;20186;-34
2022/07/29 03:42:15;;;;;;;5.20;2.17;;;18.20;99.90;;;;;;5029517;28;20240;-34
2022/07/29 03:44:45;;;;;;;3.17;1.80;;;18.20;99.90;;;;;;5029236;28;20567;-34
2022/07/29 03:47:13;;;;;;;3.07;1.90;;;18.10;99.90;;;;;;5028836;28;20464;-34
2022/07/29 03:49:40;;;;;;;3.57;1.93;;;18.20;99.90;;;;;;5028969;28;20421;-34
2022/07/29 03:52:07;;;;;;;4.90;2.70;;;18.20;99.90;;;;;;5029497;28;20472;-34
2022/07/29 03:54:33;;;;;;;3.47;2.27;;;18.30;99.90;;;;;;5029327;28;20792;-34
2022/07/29 03:57:01;;;;;;;3.90;2.10;;;18.30;99.90;;;;;;5030257;28;20417;-34
2022/07/29 03:59:29;;;;;;;5.43;2.30;;;18.30;99.90;;;;;;5040077;28;20412;-35
2022/07/29 04:01:56;;;;;;;5.00;2.33;;;18.30;99.90;;;;;;5038684;28;20785;-34
2022/07/29 04:04:22;;;;;;;4.40;2.43;;;18.20;99.90;;;;;;5032584;28;20435;-34
2022/07/29 04:06:48;;;;;;;3.60;2.37;;;18.30;99.90;;;;;;5032156;28;20425;-34
2022/07/29 04:09:14;;;;;;;2.90;2.37;;;18.30;99.90;;;;;;5032691;28;20225;-34
2022/07/29 04:11:41;;;;;;;4.97;1.90;;;18.30;99.90;;;;;;5046313;28;20303;-34
2022/07/29 04:14:07;;;;;;;2.93;1.87;;;18.30;99.90;;;;;;5052722;28;20490;-34
2022/07/29 04:16:33;;;;;;;3.47;2.23;;;18.40;99.90;;;;;;5052007;28;20455;-34
2022/07/29 04:18:59;;;;;;;4.40;2.10;;;18.40;99.90;;;;;;5050796;28;20182;-34
2022/07/29 04:21:24;;;;;;;2.77;2.20;;;18.40;99.90;;;;;;5062334;28;20187;-34
2022/07/29 04:23:50;;;;;;;3.30;2.10;;;18.30;99.90;;;;;;5032662;28;20417;-34
2022/07/29 04:26:17;;;;;;;7.00;2.30;;;18.30;99.90;;;;;;5031271;28;20206;-34
2022/07/29 04:28:42;;;;;;;3.53;1.97;;;18.30;99.90;;;;;;5031893;28;20178;-34
2022/07/29 04:31:09;;;;;;;3.87;2.07;;;18.30;99.90;;;;;;5032280;28;20536;-34
2022/07/29 04:33:35;;;;;;;3.67;2.27;;;18.30;99.90;;;;;;5032076;28;20186;-34
2022/07/29 04:36:01;;;;;;;4.23;2.10;;;18.30;99.90;;;;;;5032318;28;20499;-34
2022/07/29 04:38:27;;;;;;;3.17;2.10;;;18.30;99.90;;;;;;5031632;28;20553;-34
2022/07/29 04:40:52;;;;;;;7.30;1.90;;;18.30;99.90;;;;;;5032245;28;20273;-34
2022/07/29 04:43:18;;;;;;;3.30;1.83;;;18.30;99.90;;;;;;5030737;28;20213;-34
2022/07/29 04:45:44;;;;;;;2.80;1.97;;;18.30;99.90;;;;;;5032141;28;20189;-34
2022/07/29 04:48:09;;;;;;;2.80;1.97;;;18.30;99.90;;;;;;5031252;28;20194;-34
2022/07/29 04:50:38;;;;;;;4.13;2.10;;;18.30;99.90;;;;;;5031912;28;20218;-34
2022/07/29 04:53:04;;;;;;;2.83;1.53;;;18.20;99.90;;;;;;5042878;28;20192;-34
2022/07/29 04:55:29;;;;;;;3.97;2.10;;;18.20;99.90;;;;;;5046466;28;20752;-34
2022/07/29 04:57:55;;;;;;;9.23;1.93;;;18.20;99.90;;;;;;5043072;28;20186;-34
2022/07/29 05:00:22;;;;;;;5.40;2.70;;;18.30;99.90;;;;;;5039922;28;20192;-34
2022/07/29 05:02:49;;;;;;;3.87;2.00;;;18.30;99.90;;;;;;5043990;28;20195;-34
2022/07/29 05:05:14;;;;;;;2.20;1.70;;;18.30;99.90;;;;;;5041650;28;20476;-34
2022/07/29 05:07:41;;;;;;;2.47;2.00;;;18.20;99.90;;;;;;5041948;28;20468;-34
2022/07/29 05:10:07;;;;;;;5.73;2.30;;;18.30;99.90;;;;;;5032227;28;20186;-34
2022/07/29 05:12:33;;;;;;;3.50;1.87;;;18.20;99.90;;;;;;5039621;28;20517;-34
2022/07/29 05:14:59;;;;;;;5.83;2.60;;;18.20;99.90;;;;;;5051146;28;20919;-34
2022/07/29 05:17:25;;;;;;;4.60;2.07;;;18.20;99.90;;;;;;5050930;28;20424;-34
2022/07/29 05:19:51;;;;;;;5.80;2.13;;;18.20;99.90;;;;;;5050567;28;20882;-34
2022/07/29 05:22:19;;;;;;;3.67;2.27;;;18.20;99.90;;;;;;5052752;28;20874;-34
2022/07/29 05:24:45;;;;;;;4.00;2.40;;;18.20;99.90;;;;;;5031440;28;20428;-34
2022/07/29 05:27:11;;;;;;;4.43;2.47;;;18.20;99.90;;;;;;5030683;28;20417;-34
2022/07/29 05:29:37;;;;;;;4.20;1.90;;;18.30;99.90;;;;;;5031010;28;20425;-34
2022/07/29 05:32:03;;;;;;;3.47;2.40;;;18.30;99.90;;;;;;5031098;28;20214;-34
2022/07/29 05:34:29;;;;;;;3.03;2.10;;;18.40;99.90;;;;;;5031154;28;20194;-34
2022/07/29 05:36:55;;;;;;;3.53;2.40;;;18.40;99.90;;;;;;5030635;28;20443;-34
2022/07/29 05:39:20;;;;;;;3.13;2.20;;;18.40;99.90;;;;;;5031221;28;20898;-34
2022/07/29 05:41:46;;;;;;;5.80;2.37;;;18.40;99.90;;;;;;5031479;28;20190;-34
2022/07/29 05:44:13;;;;;;;4.53;2.07;;;18.40;99.90;;;;;;5030764;28;20255;-34
2022/07/29 05:46:39;;;;;;;3.87;2.40;;;18.40;99.90;;;;;;5037882;28;20261;-34
2022/07/29 05:49:06;;;;;;;5.00;2.63;;;18.30;99.90;;;;;;5048792;28;20432;-34
2022/07/29 05:51:33;;;;;;;7.63;2.23;;;18.30;99.90;;;;;;5042524;28;20469;-34
2022/07/29 05:53:58;;;;;;;4.43;2.30;;;18.30;99.90;;;;;;5035722;28;20477;-34
2022/07/29 05:56:24;;;;;;;3.43;2.10;;;18.30;99.90;;;;;;5042833;28;20439;-34
2022/07/29 05:58:50;;;;;;;5.03;2.23;;;18.20;99.90;;;;;;5031776;28;20270;-34
2022/07/29 06:01:16;;;;;;;6.73;2.20;;;18.20;99.90;;;;;;5032555;28;21051;-34
2022/07/29 06:03:42;;;;;;;6.13;2.90;;;18.20;99.90;;;;;;5037970;28;20692;-34
2022/07/29 06:06:09;;;;;;;4.33;2.20;;;18.30;99.90;;;;;;5040494;28;20205;-34
2022/07/29 06:08:36;;;;;;;6.07;1.73;;;18.30;99.90;;;;;;5021172;28;20440;-34
2022/07/29 06:11:02;;;;;;;5.30;2.43;;;18.30;99.90;;;;;;5045722;28;20452;-34
2022/07/29 06:13:27;;;;;;;2.33;2.07;;;18.30;99.90;;;;;;5033727;28;20417;-34
2022/07/29 06:15:53;;;;;;;6.83;2.60;;;18.40;99.90;;;;;;5030553;28;20425;-34
2022/07/29 06:18:20;;;;;;;2.97;2.53;;;18.50;99.90;;;;;;5029686;28;20239;-34
2022/07/29 06:20:46;;;;;;;6.10;2.70;;;18.60;99.90;;;;;;5039194;28;20210;-34
2022/07/29 06:23:12;;;;;;;6.10;2.90;;;18.70;99.90;;;;;;5039637;28;20425;-34
2022/07/29 06:25:40;;;;;;;3.70;2.20;;;18.70;99.90;;;;;;5030256;28;20994;-34
2022/07/29 06:28:06;;;;;;;4.60;2.30;;;18.70;99.90;;;;;;5029427;28;20194;-34
2022/07/29 06:30:31;;;;;;;4.33;2.70;;;18.80;99.90;;;;;;5029909;28;20488;-35
2022/07/29 06:32:57;;;;;;;3.53;2.60;;;18.80;99.90;;;;;;5030159;28;20808;-34
2022/07/29 06:35:23;;;;;;;4.17;2.83;;;18.80;99.90;;;;;;5030055;28;20205;-34
2022/07/29 06:37:49;;;;;;;3.00;2.47;;;18.80;99.90;;;;;;5029564;28;20189;-34
2022/07/29 06:42:59;;;;;;;5.77;2.60;;;18.70;99.90;;;;;;5030110;28;20201;-34
2022/07/29 06:45:24;;;;;;;5.03;2.93;;;18.70;99.90;;;;;;5029953;28;20421;-34
2022/07/29 06:47:50;;;;;;;5.67;3.03;;;18.60;99.90;;;;;;5029386;28;20668;-34
2022/07/29 06:50:16;;;;;;;3.93;2.77;;;18.80;99.90;;;;;;5029835;28;20225;-34
2022/07/29 06:52:42;;;;;;;3.93;2.77;;;18.70;99.90;;;;;;5029826;28;20205;-34
2022/07/29 06:55:08;;;;;;;3.77;2.93;;;18.70;99.90;;;;;;5048514;28;20193;-34
2022/07/29 06:57:34;;;;;;;3.53;2.80;;;18.70;99.90;;;;;;5031664;28;20249;-34
2022/07/29 07:00:00;;;;;;;7.23;2.83;;;18.70;99.90;;;;;;5029857;28;20582;-34
2022/07/29 07:02:26;;;;;;;5.30;2.60;;;18.60;99.90;;;;;;5031238;28;20433;-34
2022/07/29 07:04:52;;;;;;;4.83;2.60;;;18.70;99.90;;;;;;5029725;28;20970;-34
2022/07/29 07:07:18;;;;;;;3.70;2.40;;;18.70;99.90;;;;;;5029043;28;20198;-34
2022/07/29 07:09:44;;;;;;;3.23;2.93;;;18.70;99.90;;;;;;5029445;28;20425;-34
2022/07/29 07:12:10;;;;;;;5.00;2.77;;;18.70;99.90;;;;;;5028259;28;20217;-34
2022/07/29 07:14:35;;;;;;;3.73;2.83;;;18.80;99.90;;;;;;5029860;28;20245;-34
2022/07/29 07:17:03;;;;;;;3.63;2.63;;;19.00;99.90;;;;;;5036139;28;20201;-34
2022/07/29 07:19:29;;;;;;;4.50;3.20;;;19.00;99.90;;;;;;5037627;28;20197;-34
2022/07/29 07:21:55;;;;;;;5.83;3.63;;;19.20;99.90;;;;;;5042535;28;20784;-34
2022/07/29 07:24:21;;;;;;;7.10;3.30;;;19.40;99.90;;;;;;5042761;28;20428;-34
2022/07/29 07:26:46;;;;;;;4.57;3.10;;;19.60;99.90;;;;;;5038544;28;20194;-34
2022/07/29 07:29:12;;;;;;;6.40;3.30;;;19.70;99.90;;;;;;5049384;28;20197;-34
2022/07/29 07:31:38;;;;;;;5.30;3.10;;;19.90;99.90;;;;;;5050505;28;20224;-34
2022/07/29 07:34:04;;;;;;;4.63;2.90;;;19.90;99.90;;;;;;5053340;28;20658;-34
2022/07/29 07:36:30;;;;;;;4.40;2.60;;;19.80;99.90;;;;;;5053228;28;20185;-34
2022/07/29 07:38:55;;;;;;;6.37;2.70;;;19.80;99.90;;;;;;5052571;28;20209;-34
2022/07/29 07:41:22;;;;;;;4.83;2.63;;;19.80;99.90;;;;;;5053044;28;20201;-34
2022/07/29 07:43:47;;;;;;;3.87;2.97;;;19.70;99.90;;;;;;5053190;28;20193;-34
2022/07/29 07:46:13;;;;;;;3.53;3.07;;;19.70;99.90;;;;;;5053173;28;20446;-34
2022/07/29 07:48:39;;;;;;;6.67;3.37;;;19.60;99.90;;;;;;5050193;28;20197;-34
2022/07/29 07:51:05;;;;;;;3.40;3.00;;;19.50;99.90;;;;;;5052875;28;20218;-34
2022/07/29 07:53:30;;;;;;;4.37;2.60;;;19.40;99.90;;;;;;5052795;28;20220;-34
2022/07/29 07:55:56;;;;;;;5.60;3.20;;;19.40;99.90;;;;;;5052832;28;20186;-34
2022/07/29 07:58:22;;;;;;;3.50;3.20;;;19.30;99.90;;;;;;5052288;28;20190;-34
2022/07/29 08:00:47;;;;;;;5.40;3.73;;;19.30;99.90;;;;;;5048622;28;20540;-34
2022/07/29 08:03:13;;;;;;;5.33;3.20;;;19.20;99.90;;;;;;5032885;28;20205;-34
2022/07/29 08:05:40;;;;;;;4.37;3.13;;;19.20;99.90;;;;;;5032429;28;20218;-34
2022/07/29 08:08:06;;;;;;;5.60;3.37;;;19.20;99.90;;;;;;5032090;28;20550;-34
2022/07/29 08:13:16;;;;;;;4.63;2.77;;;19.30;99.90;;;;;;5052615;28;20943;-34
2022/07/29 08:15:44;;;;;;;3.87;3.10;;;19.20;99.90;;;;;;5052565;28;20439;-34
2022/07/29 08:18:10;;;;;;;6.17;3.00;;;19.30;99.90;;;;;;5051841;28;20280;-34
2022/07/29 08:20:38;;;;;;;3.77;3.20;;;19.30;99.90;;;;;;5054997;28;20518;-34
2022/07/29 08:23:05;;;;;;;9.00;3.47;;;19.30;99.90;;;;;;5045235;28;20959;-34
2022/07/29 08:25:32;;;;;;;4.20;2.77;;;19.40;99.90;;;;;;5032425;28;20436;-34
2022/07/29 08:27:58;;;;;;;2.70;2.50;;;19.50;99.90;;;;;;5031895;28;20537;-34
2022/07/29 08:30:24;;;;;;;4.50;2.70;;;19.70;99.90;;;;;;5032261;28;20960;-35
2022/07/29 08:32:52;;;;;;;7.33;3.37;;;19.80;99.90;;;;;;5032127;28;20524;-34
2022/07/29 08:35:19;;;;;;;3.73;2.80;;;19.90;99.90;;;;;;5032468;28;20202;-35
2022/07/29 08:37:45;;;;;;;5.70;3.40;;;20.00;99.90;;;;;;5031676;28;20427;-34
2022/07/29 08:40:11;;;;;;;7.43;3.20;;;20.00;99.90;;;;;;5032343;28;20491;-34
2022/07/29 08:42:37;;;;;;;4.27;3.00;;;20.00;99.90;;;;;;5031864;28;20421;-35
2022/07/29 08:45:04;;;;;;;2.67;2.17;;;20.00;99.90;;;;;;5032243;28;20516;-34
2022/07/29 08:47:30;;;;;;;6.93;2.93;;;20.10;99.90;;;;;;5031123;28;20736;-34
2022/07/29 08:49:56;;;;;;;4.83;2.60;;;20.10;99.90;;;;;;5032057;28;20528;-34
2022/07/29 08:52:27;;;;;;;6.47;3.10;;;20.00;99.90;;;;;;5032062;28;20540;-35
2022/07/29 08:54:54;;;;;;;4.37;2.77;;;20.00;99.90;;;;;;5031896;28;20432;-35
2022/07/29 08:57:21;;;;;;;5.67;2.90;;;20.00;99.90;;;;;;5031295;28;20827;-34
2022/07/29 08:59:50;;;;;;;5.20;2.90;;;20.00;99.90;;;;;;5031721;28;20421;-34
2022/07/29 09:02:28;;;;;;;7.60;3.00;;;20.00;99.90;;;;;;5033314;28;20507;-35
2022/07/29 09:04:54;;;;;;;5.70;3.00;;;19.90;99.90;;;;;;5031692;28;20841;-34
2022/07/29 09:07:20;;;;;;;7.37;2.90;;;19.90;99.90;;;;;;5030976;28;20436;-34
2022/07/29 09:09:46;;;;;;;9.70;3.47;;;19.90;99.90;;;;;;5030309;28;20429;-34
2022/07/29 09:12:12;;;;;;;4.73;3.03;;;19.90;99.90;;;;;;5049457;28;20300;-35
2022/07/29 09:14:39;;;;;;;7.43;2.73;;;19.90;99.90;;;;;;5051174;28;20427;-34
2022/07/29 09:17:05;;;;;;;5.40;3.37;;;19.90;99.90;;;;;;5050837;28;21353;-34
2022/07/29 09:19:34;;;;;;;4.70;2.83;;;20.00;99.90;;;;;;5050608;28;20438;-35
2022/07/29 09:22:02;;;;;;;4.50;3.37;;;20.00;99.90;;;;;;5055494;28;20491;-34
2022/07/29 09:24:40;;;;;;;5.07;3.20;;;20.00;99.90;;;;;;5031348;28;20831;-34
2022/07/29 09:27:21;;;;;;;6.60;3.20;;;20.10;99.90;;;;;;5037727;28;20515;-35
2022/07/29 09:30:03;;;;;;;3.43;2.90;;;20.10;99.90;;;;;;5051300;28;20852;-35
2022/07/29 09:32:29;;;;;;;5.20;3.97;;;20.20;99.90;;;;;;5051021;28;20471;-35
2022/07/29 09:35:18;;;;;;;10.37;3.57;;;20.20;99.90;;;;;;5051069;28;21060;-35
2022/07/29 09:37:44;;;;;;;7.97;3.63;;;20.20;99.90;;;;;;5050020;28;20192;-35
2022/07/29 09:40:15;;;;;;;7.03;3.27;;;20.20;99.90;;;;;;5051085;28;20436;-35
2022/07/29 09:42:41;;;;;;;6.77;3.30;;;20.10;99.90;;;;;;5050914;28;20438;-35
2022/07/29 09:45:07;;;;;;;5.50;3.33;;;20.10;99.90;;;;;;5049712;28;20775;-35
2022/07/29 09:47:51;;;;;;;6.63;3.77;;;20.00;99.90;;;;;;5050099;28;20190;-35
2022/07/29 09:50:23;;;;;;;7.90;4.53;;;20.00;99.90;;;;;;5049226;28;20430;-35
2022/07/29 09:52:51;;;;;;;8.30;3.67;;;19.80;99.90;;;;;;5050907;28;20830;-35
2022/07/29 09:55:17;;;;;;;6.10;4.10;;;19.80;99.90;;;;;;5050248;28;20428;-35
2022/07/29 09:57:44;;;;;;;4.47;3.43;;;19.80;99.90;;;;;;5050061;28;20420;-35
2022/07/29 10:00:19;;;;;;;5.07;3.17;;;19.70;99.90;;;;;;5050354;28;20425;-35
2022/07/29 10:02:47;;;;;;;4.43;4.00;;;19.80;99.90;;;;;;5030528;28;20830;-35
2022/07/29 10:05:27;;;;;;;4.47;3.40;;;19.80;99.90;;;;;;5030498;28;20887;-34
2022/07/29 10:07:57;;;;;;;5.87;3.83;;;19.80;99.90;;;;;;5030050;28;20443;-34
2022/07/29 10:10:34;;;;;;;5.53;4.20;;;19.80;99.90;;;;;;5033364;28;20416;-35
2022/07/29 10:13:01;;;;;;;7.20;4.20;;;19.80;99.90;;;;;;5050074;28;20424;-35
2022/07/29 10:15:30;;;;;;;6.13;3.67;;;19.70;99.90;;;;;;5050389;28;20432;-35
2022/07/29 10:17:56;;;;;;;5.97;4.03;;;19.70;99.90;;;;;;5049759;28;20994;-35
2022/07/29 10:20:24;;;;;;;7.93;4.90;;;19.60;99.90;;;;;;5050831;28;20425;-35
2022/07/29 10:22:51;;;;;;;5.67;4.77;;;19.60;99.90;;;;;;5046258;28;20890;-35
2022/07/29 10:25:17;;;;;;;6.47;4.07;;;19.60;99.90;;;;;;5030284;28;20429;-35
2022/07/29 10:27:45;;;;;;;6.60;4.33;;;19.50;99.90;;;;;;5029416;28;20520;-35
2022/07/29 10:30:11;;;;;;;8.70;4.33;;;19.50;99.90;;;;;;5028908;28;20445;-34
2022/07/29 10:32:40;;;;;;;7.33;3.63;;;19.60;99.90;;;;;;5029953;28;20468;-35
2022/07/29 10:35:28;;;;;;;5.40;3.93;;;19.50;99.90;;;;;;5019082;28;20435;-35
2022/07/29 10:38:15;;;;;;;8.90;3.67;;;19.50;99.90;;;;;;5047873;28;21068;-35
2022/07/29 10:43:46;;;;;;;4.60;4.20;;;19.50;99.90;;;;;;5049972;28;20431;-35
2022/07/29 10:46:14;;;;;;;6.50;4.40;;;19.40;99.90;;;;;;5049746;28;20478;-35
2022/07/29 10:49:05;;;;;;;4.67;4.00;;;19.50;99.90;;;;;;5049197;28;20432;-35
2022/07/29 10:51:55;;;;;;;6.30;5.47;;;19.50;99.90;;;;;;5049838;28;20986;-35
2022/07/29 10:54:39;;;;;;;6.80;5.00;;;19.60;99.90;;;;;;5049726;28;20420;-35
2022/07/29 10:57:27;;;;;;;5.40;4.87;;;19.60;99.90;;;;;;5049242;28;20434;-35
2022/07/29 11:00:05;;;;;;;6.30;4.73;;;19.60;99.90;;;;;;5048520;28;20458;-34
2022/07/29 11:02:31;;;;;;;9.53;4.93;;;19.60;99.90;;;;;;5030738;28;20432;-35
2022/07/29 11:04:57;;;;;;;5.50;4.40;;;19.50;99.90;;;;;;5029416;28;21105;-35
2022/07/29 11:07:26;;;;;;;6.40;5.00;;;19.50;99.90;;;;;;5031736;28;20251;-35
2022/07/29 11:10:14;;;;;;;6.13;4.40;;;19.60;99.90;;;;;;5032554;28;20190;-35
2022/07/29 11:12:43;;;;;;;4.17;3.77;;;19.60;99.90;;;;;;5042484;28;20459;-35
2022/07/29 11:15:17;;;;;;;8.23;4.43;;;19.60;99.90;;;;;;5053639;28;20424;-35
2022/07/29 11:17:57;;;;;;;6.53;4.57;;;19.60;99.90;;;;;;5053041;28;20424;-35
2022/07/29 11:20:41;;;;;;;5.83;4.93;;;19.60;99.90;;;;;;5054521;28;20506;-35
2022/07/29 11:23:28;;;;;;;6.63;5.00;;;19.60;99.90;;;;;;5044190;28;20457;-35
2022/07/29 11:26:12;;;;;;;9.33;4.63;;;19.60;99.90;;;;;;5033224;28;20425;-35
2022/07/29 11:29:18;;;;;;;6.53;4.33;;;19.60;99.90;;;;;;5039838;28;20447;-35
2022/07/29 11:31:48;;;;;;;7.13;5.23;;;19.60;99.90;;;;;;5052884;28;20486;-35
2022/07/29 11:34:35;;;;;;;7.83;5.33;;;19.60;99.90;;;;;;5053277;28;20427;-34
2022/07/29 11:37:09;;;;;;;7.80;4.90;;;19.60;99.90;;;;;;5052642;28;20431;-35
2022/07/29 11:39:38;;;;;;;7.20;4.83;;;19.60;99.90;;;;;;5053196;28;20511;-35
2022/07/29 11:42:22;;;;;;;7.77;5.40;;;19.60;99.90;;;;;;5053213;28;20486;-34
2022/07/29 11:44:58;;;;;;;5.83;5.27;;;19.80;99.90;;;;;;5052981;28;20515;-36
2022/07/29 11:47:25;;;;;;;9.77;5.60;;;19.80;99.90;;;;;;5052490;28;20419;-34
2022/07/29 11:49:52;;;;;;;8.80;5.40;;;19.80;99.90;;;;;;5051690;28;20420;-35
2022/07/29 11:52:19;;;;;;;6.87;5.17;;;19.90;99.90;;;;;;5052935;28;20472;-35
2022/07/29 11:54:47;;;;;;;7.60;6.00;;;19.90;99.90;;;;;;5052930;28;20943;-35
2022/07/29 11:57:16;;;;;;;10.40;5.60;;;20.00;99.90;;;;;;5052112;28;20420;-35
2022/07/29 11:59:44;;;;;;;8.67;6.50;;;20.00;99.90;;;;;;5052774;28;20423;-35
2022/07/29 12:02:10;;;;;;;8.17;6.50;;;20.10;99.90;;;;;;5036721;28;20417;-35
2022/07/29 12:04:53;;;;;;;5.90;4.50;;;20.20;99.90;;;;;;5032727;28;20927;-35
2022/07/29 12:07:27;;;;;;;6.40;5.80;;;20.40;99.90;;;;;;5032290;28;20420;-35
2022/07/29 12:09:53;;;;;;;5.90;5.40;;;20.60;99.90;;;;;;5032516;28;20425;-35
2022/07/29 12:12:21;;;;;;;9.80;5.93;;;20.60;99.90;;;;;;5051735;28;20517;-35
2022/07/29 12:14:47;;;;;;;5.03;4.57;;;20.60;99.90;;;;;;5052540;28;20227;-35
2022/07/29 12:17:31;;;;;;;7.43;4.83;;;20.70;99.90;;;;;;5051228;28;20432;-35
2022/07/29 12:20:03;;;;;;;7.90;6.20;;;20.70;99.90;;;;;;5050728;28;20420;-35
2022/07/29 12:22:31;;;;;;;6.20;5.60;;;20.80;99.90;;;;;;5052709;28;20440;-35
2022/07/29 12:25:02;;;;;;;6.73;5.60;;;20.90;99.90;;;;;;5032488;28;20439;-35
2022/07/29 12:27:28;;;;;;;6.47;5.57;;;20.90;99.90;;;;;;5030511;28;20935;-35
2022/07/29 12:29:59;;;;;;;5.20;4.70;;;20.90;99.90;;;;;;5032454;28;20436;-35
2022/07/29 12:32:35;;;;;;;5.30;4.20;;;20.90;99.90;;;;;;5032187;28;20471;-35
2022/07/29 12:35:14;;;;;;;5.37;4.27;;;21.00;99.90;;;;;;5032319;28;20432;-35
2022/07/29 12:37:42;;;;;;;5.10;4.20;;;21.10;99.90;;;;;;5030433;28;20463;-35
2022/07/29 12:40:09;;;;;;;4.27;3.87;;;21.20;99.90;;;;;;5032229;28;20428;-35
2022/07/29 12:42:35;;;;;;;5.03;4.53;;;21.20;99.90;;;;;;5031907;28;20784;-35
2022/07/29 12:45:02;;;;;;;6.43;4.67;;;21.30;99.90;;;;;;5032017;28;20431;-35
2022/07/29 12:47:28;;;;;;;7.03;4.40;;;21.30;99.90;;;;;;5031468;28;20433;-34
2022/07/29 12:50:11;;;;;;;8.30;3.73;;;21.40;99.90;;;;;;5032092;28;21093;-35
2022/07/29 12:52:37;;;;;;;5.53;5.03;;;21.50;99.90;;;;;;5031762;28;20221;-35
2022/07/29 12:55:04;;;;;;;6.30;5.00;;;21.60;99.90;;;;;;5031906;28;20427;-35
2022/07/29 12:57:31;;;;;;;5.10;3.80;;;21.70;99.90;;;;;;5031097;28;20194;-35
2022/07/29 13:00:04;;;;;;;7.00;4.17;;;21.90;99.90;;;;;;5031861;28;20525;-35
2022/07/29 13:02:30;;;;;;;7.47;4.63;;;22.00;99.90;;;;;;5033023;28;20459;-35
2022/07/29 13:05:00;;;;;;;6.73;3.90;;;22.10;99.90;;;;;;5031706;28;20551;-35